sensor_id;sensor_type;location;lat;lon;timestamp;P1;durP1;ratioP1;P2;durP2;ratioP2
52396;SDS011;38322;53.108;6.308;2023-05-14T05:02:03;19.58;;;9.82;;
52396;SDS011;38322;53.108;6.308;2023-05-14T05:04:29;19.60;;;10.63;;
52396;SDS011;38322;53.108;6.308;2023-05-14T05:06:54;21.30;;;9.90;;
52396;SDS011;38322;53.108;6.308;2023-05-14T05:09:20;22.98;;;9.95;;
52396;SDS011;38322;53.108;6.308;2023-05-14T05:11:46;17.73;;;8.95;;
52396;SDS011;38322;53.108;6.308;2023-05-14T05:14:11;21.30;;;8.57;;
52396;SDS011;38322;53.108;6.308;2023-05-14T05:16:37;16.63;;;9.60;;
52396;SDS011;38322;53.108;6.308;2023-05-14T05:19:03;23.52;;;10.57;;
52396;SDS011;38322;53.108;6.308;2023-05-14T05:21:29;19.13;;;10.32;;
52396;SDS011;38322;53.108;6.308;2023-05-14T05:23:55;17.52;;;9.68;;
52396;SDS011;38322;53.108;6.308;2023-05-14T05:26:21;28.90;;;10.48;;
52396;SDS011;38322;53.108;6.308;2023-05-14T05:28:47;24.30;;;10.32;;
52396;SDS011;38322;53.108;6.308;2023-05-14T05:31:12;21.45;;;8.43;;
52396;SDS011;38322;53.108;6.308;2023-05-14T05:33:38;20.35;;;9.10;;
52396;SDS011;38322;53.108;6.308;2023-05-14T05:36:04;21.10;;;10.02;;
52396;SDS011;38322;53.108;6.308;2023-05-14T05:38:30;21.15;;;8.52;;
52396;SDS011;38322;53.108;6.308;2023-05-14T05:40:56;26.90;;;10.35;;
52396;SDS011;38322;53.108;6.308;2023-05-14T05:43:21;19.63;;;8.32;;
52396;SDS011;38322;53.108;6.308;2023-05-14T05:45:47;16.67;;;8.85;;
52396;SDS011;38322;53.108;6.308;2023-05-14T05:48:13;17.77;;;8.70;;
52396;SDS011;38322;53.108;6.308;2023-05-14T05:50:38;19.73;;;9.63;;
52396;SDS011;38322;53.108;6.308;2023-05-14T05:53:04;17.05;;;9.70;;
52396;SDS011;38322;53.108;6.308;2023-05-14T05:55:30;19.70;;;9.05;;
52396;SDS011;38322;53.108;6.308;2023-05-14T05:57:56;24.23;;;10.40;;
52396;SDS011;38322;53.108;6.308;2023-05-14T06:00:22;26.13;;;10.65;;
52396;SDS011;38322;53.108;6.308;2023-05-14T06:02:48;21.75;;;10.27;;
52396;SDS011;38322;53.108;6.308;2023-05-14T06:05:14;20.50;;;9.90;;
52396;SDS011;38322;53.108;6.308;2023-05-14T06:07:39;22.73;;;11.20;;
52396;SDS011;38322;53.108;6.308;2023-05-14T06:10:05;24.10;;;10.15;;
52396;SDS011;38322;53.108;6.308;2023-05-14T06:12:31;19.55;;;10.15;;
52396;SDS011;38322;53.108;6.308;2023-05-14T06:14:57;18.23;;;10.23;;
52396;SDS011;38322;53.108;6.308;2023-05-14T06:17:23;16.42;;;8.18;;
52396;SDS011;38322;53.108;6.308;2023-05-14T06:19:50;24.27;;;10.38;;
52396;SDS011;38322;53.108;6.308;2023-05-14T06:22:16;20.77;;;10.48;;
52396;SDS011;38322;53.108;6.308;2023-05-14T06:24:41;19.42;;;9.25;;
52396;SDS011;38322;53.108;6.308;2023-05-14T06:27:08;19.85;;;10.18;;
52396;SDS011;38322;53.108;6.308;2023-05-14T06:29:35;17.73;;;8.85;;
52396;SDS011;38322;53.108;6.308;2023-05-14T06:32:02;28.08;;;9.18;;
52396;SDS011;38322;53.108;6.308;2023-05-14T06:34:28;19.10;;;8.40;;
52396;SDS011;38322;53.108;6.308;2023-05-14T06:36:55;20.55;;;8.57;;
52396;SDS011;38322;53.108;6.308;2023-05-14T06:39:21;15.40;;;7.88;;
52396;SDS011;38322;53.108;6.308;2023-05-14T06:41:47;16.63;;;8.18;;
52396;SDS011;38322;53.108;6.308;2023-05-14T06:44:13;11.38;;;7.50;;
52396;SDS011;38322;53.108;6.308;2023-05-14T06:46:38;17.75;;;8.90;;
52396;SDS011;38322;53.108;6.308;2023-05-14T06:49:04;12.02;;;7.82;;
52396;SDS011;38322;53.108;6.308;2023-05-14T06:51:30;16.38;;;6.80;;
52396;SDS011;38322;53.108;6.308;2023-05-14T06:53:56;20.75;;;9.32;;
52396;SDS011;38322;53.108;6.308;2023-05-14T06:56:22;16.55;;;8.15;;
52396;SDS011;38322;53.108;6.308;2023-05-14T06:58:48;22.48;;;8.57;;
52396;SDS011;38322;53.108;6.308;2023-05-14T07:01:13;18.90;;;7.03;;
52396;SDS011;38322;53.108;6.308;2023-05-14T07:03:40;17.17;;;8.18;;
52396;SDS011;38322;53.108;6.308;2023-05-14T07:06:06;12.98;;;7.95;;
52396;SDS011;38322;53.108;6.308;2023-05-14T07:08:32;13.23;;;6.90;;
52396;SDS011;38322;53.108;6.308;2023-05-14T07:10:57;18.17;;;8.63;;
52396;SDS011;38322;53.108;6.308;2023-05-14T07:13:23;18.33;;;7.20;;
52396;SDS011;38322;53.108;6.308;2023-05-14T07:15:52;16.70;;;8.40;;
52396;SDS011;38322;53.108;6.308;2023-05-14T07:18:19;15.52;;;8.25;;
52396;SDS011;38322;53.108;6.308;2023-05-14T07:20:48;18.75;;;7.20;;
52396;SDS011;38322;53.108;6.308;2023-05-14T07:23:13;11.40;;;7.72;;
52396;SDS011;38322;53.108;6.308;2023-05-14T07:25:39;15.52;;;7.85;;
52396;SDS011;38322;53.108;6.308;2023-05-14T07:28:05;19.08;;;7.25;;
52396;SDS011;38322;53.108;6.308;2023-05-14T07:30:31;14.23;;;7.10;;
52396;SDS011;38322;53.108;6.308;2023-05-14T07:32:57;11.63;;;8.00;;
52396;SDS011;38322;53.108;6.308;2023-05-14T07:35:22;16.42;;;8.10;;
52396;SDS011;38322;53.108;6.308;2023-05-14T07:37:48;14.65;;;8.18;;
52396;SDS011;38322;53.108;6.308;2023-05-14T07:40:14;14.63;;;6.93;;
52396;SDS011;38322;53.108;6.308;2023-05-14T07:42:40;17.83;;;7.15;;
52396;SDS011;38322;53.108;6.308;2023-05-14T07:45:06;18.25;;;7.03;;
52396;SDS011;38322;53.108;6.308;2023-05-14T07:47:33;12.75;;;6.15;;
52396;SDS011;38322;53.108;6.308;2023-05-14T07:49:59;14.13;;;6.68;;
52396;SDS011;38322;53.108;6.308;2023-05-14T07:52:25;14.43;;;7.93;;
52396;SDS011;38322;53.108;6.308;2023-05-14T07:54:51;12.55;;;7.57;;
52396;SDS011;38322;53.108;6.308;2023-05-14T07:57:17;13.57;;;7.50;;
52396;SDS011;38322;53.108;6.308;2023-05-14T07:59:43;14.32;;;7.95;;
52396;SDS011;38322;53.108;6.308;2023-05-14T08:02:10;11.65;;;7.25;;
52396;SDS011;38322;53.108;6.308;2023-05-14T08:04:37;16.33;;;7.28;;
52396;SDS011;38322;53.108;6.308;2023-05-14T08:07:03;15.93;;;6.10;;
52396;SDS011;38322;53.108;6.308;2023-05-14T08:09:29;14.98;;;7.65;;
52396;SDS011;38322;53.108;6.308;2023-05-14T08:11:55;17.13;;;6.93;;
52396;SDS011;38322;53.108;6.308;2023-05-14T08:14:21;15.10;;;7.53;;
52396;SDS011;38322;53.108;6.308;2023-05-14T08:16:47;9.52;;;5.85;;
52396;SDS011;38322;53.108;6.308;2023-05-14T08:19:13;10.35;;;6.78;;
52396;SDS011;38322;53.108;6.308;2023-05-14T08:21:39;17.05;;;6.18;;
52396;SDS011;38322;53.108;6.308;2023-05-14T08:24:05;18.58;;;7.15;;
52396;SDS011;38322;53.108;6.308;2023-05-14T08:26:31;14.63;;;6.82;;
52396;SDS011;38322;53.108;6.308;2023-05-14T08:28:57;18.45;;;6.85;;
52396;SDS011;38322;53.108;6.308;2023-05-14T08:31:22;13.98;;;8.68;;
52396;SDS011;38322;53.108;6.308;2023-05-14T08:33:48;19.23;;;7.75;;
52396;SDS011;38322;53.108;6.308;2023-05-14T08:36:14;16.27;;;7.70;;
52396;SDS011;38322;53.108;6.308;2023-05-14T08:38:40;18.30;;;7.35;;
52396;SDS011;38322;53.108;6.308;2023-05-14T08:41:06;12.73;;;6.20;;
52396;SDS011;38322;53.108;6.308;2023-05-14T08:43:36;22.40;;;7.35;;
52396;SDS011;38322;53.108;6.308;2023-05-14T08:46:23;14.10;;;7.20;;
52396;SDS011;38322;53.108;6.308;2023-05-14T08:48:55;17.63;;;7.90;;
52396;SDS011;38322;53.108;6.308;2023-05-14T08:51:23;18.90;;;7.40;;
52396;SDS011;38322;53.108;6.308;2023-05-14T08:53:50;14.82;;;7.38;;
52396;SDS011;38322;53.108;6.308;2023-05-14T08:56:16;16.73;;;7.13;;
52396;SDS011;38322;53.108;6.308;2023-05-14T08:58:43;14.60;;;6.88;;
52396;SDS011;38322;53.108;6.308;2023-05-14T09:01:09;15.80;;;7.30;;
52396;SDS011;38322;53.108;6.308;2023-05-14T09:03:35;11.52;;;6.80;;
52396;SDS011;38322;53.108;6.308;2023-05-14T09:06:01;13.05;;;7.55;;
52396;SDS011;38322;53.108;6.308;2023-05-14T09:08:29;16.00;;;7.43;;
52396;SDS011;38322;53.108;6.308;2023-05-14T09:10:55;15.90;;;7.45;;
52396;SDS011;38322;53.108;6.308;2023-05-14T09:13:21;13.23;;;6.35;;
52396;SDS011;38322;53.108;6.308;2023-05-14T09:15:47;12.80;;;7.07;;
52396;SDS011;38322;53.108;6.308;2023-05-14T09:18:15;16.90;;;7.90;;
52396;SDS011;38322;53.108;6.308;2023-05-14T09:20:41;12.40;;;7.50;;
52396;SDS011;38322;53.108;6.308;2023-05-14T09:23:07;11.13;;;7.18;;
52396;SDS011;38322;53.108;6.308;2023-05-14T09:25:33;14.32;;;7.65;;
52396;SDS011;38322;53.108;6.308;2023-05-14T09:27:58;17.52;;;8.30;;
52396;SDS011;38322;53.108;6.308;2023-05-14T09:30:29;14.68;;;7.63;;
52396;SDS011;38322;53.108;6.308;2023-05-14T09:32:55;12.45;;;7.68;;
52396;SDS011;38322;53.108;6.308;2023-05-14T09:35:23;12.95;;;7.32;;
52396;SDS011;38322;53.108;6.308;2023-05-14T09:37:49;12.40;;;7.47;;
52396;SDS011;38322;53.108;6.308;2023-05-14T09:40:17;16.10;;;8.40;;
52396;SDS011;38322;53.108;6.308;2023-05-14T09:42:44;9.00;;;6.15;;
52396;SDS011;38322;53.108;6.308;2023-05-14T09:45:12;17.40;;;8.13;;
52396;SDS011;38322;53.108;6.308;2023-05-14T09:47:38;10.80;;;6.78;;
52396;SDS011;38322;53.108;6.308;2023-05-14T09:50:04;16.75;;;7.45;;
52396;SDS011;38322;53.108;6.308;2023-05-14T09:52:31;14.90;;;7.22;;
52396;SDS011;38322;53.108;6.308;2023-05-14T09:54:57;13.23;;;7.90;;
52396;SDS011;38322;53.108;6.308;2023-05-14T09:57:23;11.95;;;7.72;;
52396;SDS011;38322;53.108;6.308;2023-05-14T09:59:51;12.70;;;7.30;;
52396;SDS011;38322;53.108;6.308;2023-05-14T10:04:51;17.42;;;7.25;;
52396;SDS011;38322;53.108;6.308;2023-05-14T10:07:22;13.80;;;7.28;;
52396;SDS011;38322;53.108;6.308;2023-05-14T10:09:52;9.18;;;7.28;;
52396;SDS011;38322;53.108;6.308;2023-05-14T10:12:21;13.00;;;7.03;;
52396;SDS011;38322;53.108;6.308;2023-05-14T10:14:49;15.23;;;6.85;;
52396;SDS011;38322;53.108;6.308;2023-05-14T10:17:20;13.27;;;8.10;;
52396;SDS011;38322;53.108;6.308;2023-05-14T10:19:52;10.38;;;6.90;;
52396;SDS011;38322;53.108;6.308;2023-05-14T10:22:21;11.30;;;7.53;;
52396;SDS011;38322;53.108;6.308;2023-05-14T10:24:48;12.68;;;7.60;;
52396;SDS011;38322;53.108;6.308;2023-05-14T10:27:19;14.23;;;8.18;;
52396;SDS011;38322;53.108;6.308;2023-05-14T10:29:50;13.32;;;6.93;;
52396;SDS011;38322;53.108;6.308;2023-05-14T10:32:23;13.02;;;7.07;;
52396;SDS011;38322;53.108;6.308;2023-05-14T10:34:51;12.77;;;7.20;;
52396;SDS011;38322;53.108;6.308;2023-05-14T10:37:19;11.55;;;6.72;;
52396;SDS011;38322;53.108;6.308;2023-05-14T10:39:50;15.93;;;7.80;;
52396;SDS011;38322;53.108;6.308;2023-05-14T10:47:17;10.45;;;7.10;;
52396;SDS011;38322;53.108;6.308;2023-05-14T10:49:44;20.52;;;7.32;;
52396;SDS011;38322;53.108;6.308;2023-05-14T10:52:14;9.70;;;6.32;;
52396;SDS011;38322;53.108;6.308;2023-05-14T10:54:49;13.13;;;7.50;;
52396;SDS011;38322;53.108;6.308;2023-05-14T10:57:20;10.07;;;6.60;;
52396;SDS011;38322;53.108;6.308;2023-05-14T10:59:47;18.17;;;6.47;;
52396;SDS011;38322;53.108;6.308;2023-05-14T11:02:19;16.65;;;6.43;;
52396;SDS011;38322;53.108;6.308;2023-05-14T11:04:51;13.35;;;6.80;;
52396;SDS011;38322;53.108;6.308;2023-05-14T11:07:22;9.40;;;6.97;;
52396;SDS011;38322;53.108;6.308;2023-05-14T11:09:51;14.65;;;7.70;;
52396;SDS011;38322;53.108;6.308;2023-05-14T11:12:20;12.32;;;7.95;;
52396;SDS011;38322;53.108;6.308;2023-05-14T11:14:46;11.85;;;7.10;;
52396;SDS011;38322;53.108;6.308;2023-05-14T11:17:11;16.48;;;8.27;;
52396;SDS011;38322;53.108;6.308;2023-05-14T11:19:37;8.15;;;7.05;;
52396;SDS011;38322;53.108;6.308;2023-05-14T11:22:03;14.13;;;8.73;;
52396;SDS011;38322;53.108;6.308;2023-05-14T11:24:29;11.05;;;6.57;;
52396;SDS011;38322;53.108;6.308;2023-05-14T11:26:55;11.63;;;7.13;;
52396;SDS011;38322;53.108;6.308;2023-05-14T11:29:21;14.73;;;8.50;;
52396;SDS011;38322;53.108;6.308;2023-05-14T11:31:46;7.72;;;6.03;;
52396;SDS011;38322;53.108;6.308;2023-05-14T11:34:14;11.70;;;5.95;;
52396;SDS011;38322;53.108;6.308;2023-05-14T11:36:40;13.32;;;5.18;;
52396;SDS011;38322;53.108;6.308;2023-05-14T11:39:06;6.47;;;4.32;;
52396;SDS011;38322;53.108;6.308;2023-05-14T11:41:32;10.15;;;5.20;;
52396;SDS011;38322;53.108;6.308;2023-05-14T11:43:58;5.78;;;4.82;;
52396;SDS011;38322;53.108;6.308;2023-05-14T11:46:23;14.57;;;4.50;;
52396;SDS011;38322;53.108;6.308;2023-05-14T11:48:50;7.00;;;3.92;;
52396;SDS011;38322;53.108;6.308;2023-05-14T11:51:15;4.20;;;3.15;;
52396;SDS011;38322;53.108;6.308;2023-05-14T11:53:41;8.85;;;3.95;;
52396;SDS011;38322;53.108;6.308;2023-05-14T11:56:08;5.25;;;3.80;;
52396;SDS011;38322;53.108;6.308;2023-05-14T11:58:35;5.75;;;3.65;;
52396;SDS011;38322;53.108;6.308;2023-05-14T12:01:01;5.05;;;3.97;;
52396;SDS011;38322;53.108;6.308;2023-05-14T12:03:26;12.85;;;4.47;;
52396;SDS011;38322;53.108;6.308;2023-05-14T12:06:01;12.73;;;4.55;;
52396;SDS011;38322;53.108;6.308;2023-05-14T12:08:31;6.18;;;2.90;;
52396;SDS011;38322;53.108;6.308;2023-05-14T12:10:57;9.00;;;3.65;;
52396;SDS011;38322;53.108;6.308;2023-05-14T12:13:26;6.20;;;3.75;;
52396;SDS011;38322;53.108;6.308;2023-05-14T12:15:58;6.75;;;3.95;;
52396;SDS011;38322;53.108;6.308;2023-05-14T12:18:26;7.00;;;4.43;;
52396;SDS011;38322;53.108;6.308;2023-05-14T12:20:53;8.52;;;4.22;;
52396;SDS011;38322;53.108;6.308;2023-05-14T12:25:50;5.32;;;3.90;;
52396;SDS011;38322;53.108;6.308;2023-05-14T12:28:16;6.40;;;4.15;;
52396;SDS011;38322;53.108;6.308;2023-05-14T12:30:42;11.82;;;5.05;;
52396;SDS011;38322;53.108;6.308;2023-05-14T12:33:08;10.15;;;5.70;;
52396;SDS011;38322;53.108;6.308;2023-05-14T12:35:34;11.88;;;4.80;;
52396;SDS011;38322;53.108;6.308;2023-05-14T12:38:01;12.90;;;5.07;;
52396;SDS011;38322;53.108;6.308;2023-05-14T12:40:27;7.40;;;3.90;;
52396;SDS011;38322;53.108;6.308;2023-05-14T12:42:53;8.30;;;4.05;;
52396;SDS011;38322;53.108;6.308;2023-05-14T12:45:19;5.18;;;3.35;;
52396;SDS011;38322;53.108;6.308;2023-05-14T12:47:45;8.63;;;4.18;;
52396;SDS011;38322;53.108;6.308;2023-05-14T12:50:11;8.85;;;4.40;;
52396;SDS011;38322;53.108;6.308;2023-05-14T12:52:36;6.97;;;4.07;;
52396;SDS011;38322;53.108;6.308;2023-05-14T12:55:02;10.45;;;4.25;;
52396;SDS011;38322;53.108;6.308;2023-05-14T12:57:28;9.25;;;4.88;;
52396;SDS011;38322;53.108;6.308;2023-05-14T12:59:55;7.43;;;4.25;;
52396;SDS011;38322;53.108;6.308;2023-05-14T13:02:21;7.88;;;4.85;;
52396;SDS011;38322;53.108;6.308;2023-05-14T13:04:47;12.02;;;5.22;;
52396;SDS011;38322;53.108;6.308;2023-05-14T13:07:13;6.57;;;3.80;;
52396;SDS011;38322;53.108;6.308;2023-05-14T13:09:39;14.48;;;5.75;;
52396;SDS011;38322;53.108;6.308;2023-05-14T13:12:05;7.55;;;4.32;;
52396;SDS011;38322;53.108;6.308;2023-05-14T13:14:31;8.95;;;4.05;;
52396;SDS011;38322;53.108;6.308;2023-05-14T13:16:57;11.70;;;4.97;;
52396;SDS011;38322;53.108;6.308;2023-05-14T13:19:22;4.85;;;3.53;;
52396;SDS011;38322;53.108;6.308;2023-05-14T13:21:48;5.35;;;3.53;;
52396;SDS011;38322;53.108;6.308;2023-05-14T13:24:14;5.82;;;3.67;;
52396;SDS011;38322;53.108;6.308;2023-05-14T13:26:40;11.32;;;4.90;;
52396;SDS011;38322;53.108;6.308;2023-05-14T13:29:08;6.22;;;4.57;;
52396;SDS011;38322;53.108;6.308;2023-05-14T13:31:34;8.65;;;5.22;;
52396;SDS011;38322;53.108;6.308;2023-05-14T13:34:00;12.68;;;5.25;;
52396;SDS011;38322;53.108;6.308;2023-05-14T13:36:26;6.28;;;4.65;;
52396;SDS011;38322;53.108;6.308;2023-05-14T13:38:52;14.63;;;5.03;;
52396;SDS011;38322;53.108;6.308;2023-05-14T13:41:18;8.18;;;4.57;;
52396;SDS011;38322;53.108;6.308;2023-05-14T13:43:43;7.30;;;4.93;;
52396;SDS011;38322;53.108;6.308;2023-05-14T13:46:09;6.75;;;4.57;;
52396;SDS011;38322;53.108;6.308;2023-05-14T13:48:35;5.93;;;4.95;;
52396;SDS011;38322;53.108;6.308;2023-05-14T13:51:01;6.38;;;3.78;;
52396;SDS011;38322;53.108;6.308;2023-05-14T13:53:27;5.95;;;3.83;;
52396;SDS011;38322;53.108;6.308;2023-05-14T13:55:53;8.85;;;4.32;;
52396;SDS011;38322;53.108;6.308;2023-05-14T13:58:22;7.93;;;4.28;;
52396;SDS011;38322;53.108;6.308;2023-05-14T14:00:49;7.40;;;4.75;;
52396;SDS011;38322;53.108;6.308;2023-05-14T14:03:15;5.43;;;4.78;;
52396;SDS011;38322;53.108;6.308;2023-05-14T14:05:42;7.20;;;4.55;;
52396;SDS011;38322;53.108;6.308;2023-05-14T14:08:07;9.50;;;5.20;;
52396;SDS011;38322;53.108;6.308;2023-05-14T14:10:33;8.60;;;5.15;;
52396;SDS011;38322;53.108;6.308;2023-05-14T14:12:59;5.53;;;3.15;;
52396;SDS011;38322;53.108;6.308;2023-05-14T14:15:25;6.55;;;4.80;;
52396;SDS011;38322;53.108;6.308;2023-05-14T14:17:51;6.90;;;3.75;;
52396;SDS011;38322;53.108;6.308;2023-05-14T14:20:16;5.18;;;3.75;;
52396;SDS011;38322;53.108;6.308;2023-05-14T14:22:42;5.15;;;4.63;;
52396;SDS011;38322;53.108;6.308;2023-05-14T14:25:09;4.97;;;3.38;;
52396;SDS011;38322;53.108;6.308;2023-05-14T14:27:36;7.95;;;3.67;;
52396;SDS011;38322;53.108;6.308;2023-05-14T14:30:04;6.97;;;3.80;;
52396;SDS011;38322;53.108;6.308;2023-05-14T14:32:32;8.00;;;4.47;;
52396;SDS011;38322;53.108;6.308;2023-05-14T14:34:58;5.78;;;4.38;;
52396;SDS011;38322;53.108;6.308;2023-05-14T14:37:23;13.43;;;8.65;;
52396;SDS011;38322;53.108;6.308;2023-05-14T14:39:49;14.82;;;8.35;;
52396;SDS011;38322;53.108;6.308;2023-05-14T14:42:15;10.40;;;7.03;;
52396;SDS011;38322;53.108;6.308;2023-05-14T14:44:41;12.55;;;9.20;;
52396;SDS011;38322;53.108;6.308;2023-05-14T14:47:06;9.40;;;8.52;;
52396;SDS011;38322;53.108;6.308;2023-05-14T14:49:32;16.80;;;9.88;;
52396;SDS011;38322;53.108;6.308;2023-05-14T14:51:58;13.60;;;8.95;;
52396;SDS011;38322;53.108;6.308;2023-05-14T14:54:23;13.98;;;10.15;;
52396;SDS011;38322;53.108;6.308;2023-05-14T14:56:49;15.40;;;10.27;;
52396;SDS011;38322;53.108;6.308;2023-05-14T14:59:16;15.18;;;11.98;;
52396;SDS011;38322;53.108;6.308;2023-05-14T15:01:42;13.82;;;9.82;;
52396;SDS011;38322;53.108;6.308;2023-05-14T15:04:08;12.20;;;10.10;;
52396;SDS011;38322;53.108;6.308;2023-05-14T15:06:34;15.60;;;11.05;;
52396;SDS011;38322;53.108;6.308;2023-05-14T15:08:59;10.88;;;9.60;;
52396;SDS011;38322;53.108;6.308;2023-05-14T15:11:26;13.85;;;11.07;;
52396;SDS011;38322;53.108;6.308;2023-05-14T15:13:52;15.63;;;10.55;;
52396;SDS011;38322;53.108;6.308;2023-05-14T15:16:18;13.50;;;11.27;;
52396;SDS011;38322;53.108;6.308;2023-05-14T15:18:44;16.40;;;11.43;;
52396;SDS011;38322;53.108;6.308;2023-05-14T15:21:10;14.15;;;10.43;;
52396;SDS011;38322;53.108;6.308;2023-05-14T15:23:37;17.52;;;11.02;;
52396;SDS011;38322;53.108;6.308;2023-05-14T15:26:03;13.77;;;10.18;;
52396;SDS011;38322;53.108;6.308;2023-05-14T15:28:29;13.07;;;10.55;;
52396;SDS011;38322;53.108;6.308;2023-05-14T15:30:54;15.35;;;10.88;;
52396;SDS011;38322;53.108;6.308;2023-05-14T15:33:20;14.85;;;11.25;;
52396;SDS011;38322;53.108;6.308;2023-05-14T15:35:46;14.55;;;10.15;;
52396;SDS011;38322;53.108;6.308;2023-05-14T15:38:12;14.52;;;11.55;;
52396;SDS011;38322;53.108;6.308;2023-05-14T15:40:37;16.25;;;12.23;;
52396;SDS011;38322;53.108;6.308;2023-05-14T15:43:04;15.20;;;11.60;;
52396;SDS011;38322;53.108;6.308;2023-05-14T15:45:30;17.17;;;11.60;;
52396;SDS011;38322;53.108;6.308;2023-05-14T15:47:56;18.55;;;13.30;;
52396;SDS011;38322;53.108;6.308;2023-05-14T15:50:22;15.52;;;12.15;;
52396;SDS011;38322;53.108;6.308;2023-05-14T15:52:49;13.77;;;11.85;;
52396;SDS011;38322;53.108;6.308;2023-05-14T15:55:14;17.48;;;11.13;;
52396;SDS011;38322;53.108;6.308;2023-05-14T15:57:40;14.38;;;11.75;;
52396;SDS011;38322;53.108;6.308;2023-05-14T16:00:06;11.68;;;9.20;;
52396;SDS011;38322;53.108;6.308;2023-05-14T16:02:36;14.35;;;10.88;;
52396;SDS011;38322;53.108;6.308;2023-05-14T16:05:03;13.57;;;10.43;;
52396;SDS011;38322;53.108;6.308;2023-05-14T16:07:29;16.05;;;12.38;;
52396;SDS011;38322;53.108;6.308;2023-05-14T16:09:54;16.02;;;10.10;;
52396;SDS011;38322;53.108;6.308;2023-05-14T16:12:20;16.35;;;11.77;;
52396;SDS011;38322;53.108;6.308;2023-05-14T16:14:46;16.35;;;10.77;;
52396;SDS011;38322;53.108;6.308;2023-05-14T16:17:12;24.88;;;12.25;;
52396;SDS011;38322;53.108;6.308;2023-05-14T16:19:38;14.23;;;9.77;;
52396;SDS011;38322;53.108;6.308;2023-05-14T16:22:04;13.93;;;11.98;;
52396;SDS011;38322;53.108;6.308;2023-05-14T16:24:29;18.00;;;12.80;;
52396;SDS011;38322;53.108;6.308;2023-05-14T16:26:55;12.05;;;10.73;;
52396;SDS011;38322;53.108;6.308;2023-05-14T16:29:21;13.65;;;11.45;;
52396;SDS011;38322;53.108;6.308;2023-05-14T16:31:47;14.57;;;12.30;;
52396;SDS011;38322;53.108;6.308;2023-05-14T16:34:12;16.05;;;12.88;;
52396;SDS011;38322;53.108;6.308;2023-05-14T16:36:38;18.38;;;11.52;;
52396;SDS011;38322;53.108;6.308;2023-05-14T16:39:04;15.45;;;11.27;;
52396;SDS011;38322;53.108;6.308;2023-05-14T16:41:31;19.55;;;17.05;;
52396;SDS011;38322;53.108;6.308;2023-05-14T16:43:57;21.75;;;17.73;;
52396;SDS011;38322;53.108;6.308;2023-05-14T16:46:23;22.98;;;18.13;;
52396;SDS011;38322;53.108;6.308;2023-05-14T16:48:49;21.08;;;17.17;;
52396;SDS011;38322;53.108;6.308;2023-05-14T16:51:15;19.40;;;16.80;;
52396;SDS011;38322;53.108;6.308;2023-05-14T16:53:41;23.23;;;18.42;;
52396;SDS011;38322;53.108;6.308;2023-05-14T16:56:06;19.10;;;17.05;;
52396;SDS011;38322;53.108;6.308;2023-05-14T16:58:32;21.13;;;18.38;;
52396;SDS011;38322;53.108;6.308;2023-05-14T17:00:58;23.35;;;18.27;;
52396;SDS011;38322;53.108;6.308;2023-05-14T17:03:23;21.02;;;18.45;;
52396;SDS011;38322;53.108;6.308;2023-05-14T17:05:49;24.05;;;19.23;;
52396;SDS011;38322;53.108;6.308;2023-05-14T17:08:15;21.05;;;18.85;;
52396;SDS011;38322;53.108;6.308;2023-05-14T17:10:41;20.33;;;18.15;;
52396;SDS011;38322;53.108;6.308;2023-05-14T17:13:07;20.55;;;18.45;;
52396;SDS011;38322;53.108;6.308;2023-05-14T17:15:33;20.60;;;18.08;;
52396;SDS011;38322;53.108;6.308;2023-05-14T17:17:59;19.55;;;17.23;;
52396;SDS011;38322;53.108;6.308;2023-05-14T17:20:25;19.52;;;17.55;;
52396;SDS011;38322;53.108;6.308;2023-05-14T17:22:52;16.63;;;14.27;;
52396;SDS011;38322;53.108;6.308;2023-05-14T17:25:18;24.42;;;18.75;;
52396;SDS011;38322;53.108;6.308;2023-05-14T17:27:44;18.58;;;16.60;;
52396;SDS011;38322;53.108;6.308;2023-05-14T17:30:10;20.35;;;17.17;;
52396;SDS011;38322;53.108;6.308;2023-05-14T17:32:36;22.33;;;19.48;;
52396;SDS011;38322;53.108;6.308;2023-05-14T17:35:01;30.15;;;17.17;;
52396;SDS011;38322;53.108;6.308;2023-05-14T17:37:27;21.33;;;19.08;;
52396;SDS011;38322;53.108;6.308;2023-05-14T17:39:53;22.83;;;17.77;;
52396;SDS011;38322;53.108;6.308;2023-05-14T17:42:19;22.25;;;19.95;;
52396;SDS011;38322;53.108;6.308;2023-05-14T17:44:44;25.10;;;19.08;;
52396;SDS011;38322;53.108;6.308;2023-05-14T17:47:10;22.17;;;18.23;;
52396;SDS011;38322;53.108;6.308;2023-05-14T17:49:36;21.02;;;18.08;;
52396;SDS011;38322;53.108;6.308;2023-05-14T17:52:02;22.15;;;19.45;;
52396;SDS011;38322;53.108;6.308;2023-05-14T17:54:28;19.58;;;17.27;;
52396;SDS011;38322;53.108;6.308;2023-05-14T17:56:53;22.10;;;19.80;;
52396;SDS011;38322;53.108;6.308;2023-05-14T17:59:19;20.90;;;18.17;;
52396;SDS011;38322;53.108;6.308;2023-05-14T18:01:45;21.77;;;19.55;;
52396;SDS011;38322;53.108;6.308;2023-05-14T18:04:12;22.95;;;18.92;;
52396;SDS011;38322;53.108;6.308;2023-05-14T18:06:37;22.90;;;19.23;;
52396;SDS011;38322;53.108;6.308;2023-05-14T18:09:03;22.52;;;18.88;;
52396;SDS011;38322;53.108;6.308;2023-05-14T18:11:29;24.70;;;20.63;;
52396;SDS011;38322;53.108;6.308;2023-05-14T18:13:58;21.88;;;18.67;;
52396;SDS011;38322;53.108;6.308;2023-05-14T18:16:25;26.30;;;19.70;;
52396;SDS011;38322;53.108;6.308;2023-05-14T18:18:51;24.20;;;21.50;;
52396;SDS011;38322;53.108;6.308;2023-05-14T18:21:16;26.38;;;21.40;;
52396;SDS011;38322;53.108;6.308;2023-05-14T18:23:42;25.75;;;22.30;;
52396;SDS011;38322;53.108;6.308;2023-05-14T18:26:08;26.63;;;22.45;;
52396;SDS011;38322;53.108;6.308;2023-05-14T18:28:35;24.80;;;19.85;;
52396;SDS011;38322;53.108;6.308;2023-05-14T18:31:01;28.45;;;22.30;;
52396;SDS011;38322;53.108;6.308;2023-05-14T18:33:28;24.58;;;21.80;;
52396;SDS011;38322;53.108;6.308;2023-05-14T18:35:54;28.92;;;21.65;;
52396;SDS011;38322;53.108;6.308;2023-05-14T18:38:20;30.60;;;22.13;;
52396;SDS011;38322;53.108;6.308;2023-05-14T18:40:46;35.00;;;25.08;;
52396;SDS011;38322;53.108;6.308;2023-05-14T18:43:13;30.17;;;21.85;;
52396;SDS011;38322;53.108;6.308;2023-05-14T18:45:41;29.77;;;23.05;;
52396;SDS011;38322;53.108;6.308;2023-05-14T18:48:07;29.90;;;22.75;;
52396;SDS011;38322;53.108;6.308;2023-05-14T18:50:33;29.35;;;24.25;;
52396;SDS011;38322;53.108;6.308;2023-05-14T18:52:59;31.15;;;23.00;;
52396;SDS011;38322;53.108;6.308;2023-05-14T18:55:25;29.52;;;22.58;;
52396;SDS011;38322;53.108;6.308;2023-05-14T18:57:51;31.90;;;24.77;;
52396;SDS011;38322;53.108;6.308;2023-05-14T19:00:17;33.55;;;22.35;;
52396;SDS011;38322;53.108;6.308;2023-05-14T19:02:43;28.13;;;23.05;;
52396;SDS011;38322;53.108;6.308;2023-05-14T19:05:09;30.80;;;23.95;;
52396;SDS011;38322;53.108;6.308;2023-05-14T19:07:35;24.15;;;20.83;;
52396;SDS011;38322;53.108;6.308;2023-05-14T19:10:02;25.90;;;21.67;;
52396;SDS011;38322;53.108;6.308;2023-05-14T19:12:29;34.85;;;23.75;;
52396;SDS011;38322;53.108;6.308;2023-05-14T19:14:55;27.38;;;22.67;;
52396;SDS011;38322;53.108;6.308;2023-05-14T19:17:22;27.10;;;22.25;;
52396;SDS011;38322;53.108;6.308;2023-05-14T19:19:48;30.63;;;22.13;;
52396;SDS011;38322;53.108;6.308;2023-05-14T19:22:14;23.38;;;19.38;;
52396;SDS011;38322;53.108;6.308;2023-05-14T19:24:40;24.77;;;21.00;;
52396;SDS011;38322;53.108;6.308;2023-05-14T19:27:06;23.73;;;18.30;;
52396;SDS011;38322;53.108;6.308;2023-05-14T19:29:34;27.60;;;20.27;;
52396;SDS011;38322;53.108;6.308;2023-05-14T19:32:01;27.85;;;20.85;;
52396;SDS011;38322;53.108;6.308;2023-05-14T19:34:28;24.77;;;19.55;;
52396;SDS011;38322;53.108;6.308;2023-05-14T19:36:55;25.67;;;18.63;;